Rice Lake, WI

6:23 AM CDT on July 26, 2014 (GMT -0500)
Shell Lake (KWISHELL2) Elev 1230 ft | 45.72 °N, 91.89 °W | Change Station

Current weather conditions updated 39 seconds ago

Overcast
Overcast
69.8 °F
Feels Like 69.8 °F
N
0.1
Wind Variable Wind from WNW
Gusts 0.9 mph

Today is forecast to be Much Warmer than yesterday. Thunderstorms early tonight.

Today
High -- | Low -- °F
--% Chance of Precip.
Yesterday
High -- | Low -- °F
Precip. -- in
5:43 AM 8:42 PM
Waning Crescent, 0% visible
Pressure 29.81 in
Visibility 2.5 miles
Clouds Overcast 500 ft
Dew Point 68 °F
Humidity 93%
Rainfall 0.00 in
Snow Depth Not available.
UV 0 out of 12
Pollen 7.20 out of 12
Air Quality Not available.
Flu Activity Not available.
METAR KUBE 261115Z AUTO 25003KT 2 1/2SM BR OVC005 20/19 A2981 RMK AO2

More Conditions Fewer Conditions

Pressure 29.81 in
Visibility 2.5 miles
Clouds Overcast 500 ft
Dew Point 68 °F
Humidity 93%
Rainfall 0.00 in
Snow Depth Not available.
UV 0 out of 12
Pollen 7.20 out of 12
Air Quality Not available.
Flu Activity Not available.
METAR KUBE 261115Z AUTO 25003KT 2 1/2SM BR OVC005 20/19 A2981 RMK AO2

More Conditions Fewer Conditions

10-Day Weather Forecast

Almanac

Astronomy

Jul. 26, 2014 Rise Set
Actual Time 5:43 AM CDT 8:42 PM CDT
Civil Twilight 5:08 AM CDT 9:17 PM CDT
Nautical Twilight 4:23 AM CDT 10:02 PM CDT
Astronomical Twilight 3:29 AM CDT 10:55 PM CDT
Moon 5:40 AM CDT 8:12 PM CDT
Length of Visible Light 16h 08m
Length of Day
14h 58m
Tomorrow will be 2m 15s shorter.
Waning Crescent, 0% of the Moon is Illuminated
Today
Waning Crescent
Jul 26
New
Aug 3
First Quarter
Aug 10
Full
Aug 17
Last Quarter

Today's Extremes

State Highs State Lows

Community

WunderPhotos

Upload Photos

1,737,538 photos uploaded!

Nearby

Snow Depth

Station Depth Elevation
No new snow has been reported.

Earthquake Activity

City Distance Mag. Time & Date
No recent earthquake activity has been reported nearby.
Minimum magnitude displayed is 2.5.

Coastal Water Temperatures

Place Temperature
No Stations Reporting

Nearby Weather Stations

Station Location Temp. Dew Point Humidity Wind Precip. Elev Updated Type
Shell Lake, Shell Lake, WI 69.8 °F 68 °F 93% WNW  at  0.1 mph - / hr 1230 ft 6:23 AM CDT Normal
The Woods, Birchwood, WI 68.7 °F 68 °F 99% SW  at  0.0 mph - / hr 1214 ft 6:16 AM CDT Normal
Shell Lake, WI 69.8 °F 70 °F 99% SSW  at  3.7 mph - / hr 1240 ft 6:17 AM CDT Normal
Chris and Kristin Olson, Barron, WI 68.6 °F 68 °F 98% SW  at  2.1 mph 0.00 in / hr 1122 ft 6:23 AM CDT Rapid Fire

Show More Stations Show Fewer Stations